SLZC weather

San Carlos Airport
Ichilo, Santa Cruz Department, Bolivia

Public forecast

Using degrees Celsius for public forecast. Weather courtesy of forecast.io.

METAR (pilot weather report)

Closest report is Viru Viru International Airport, 33.8 nm (62.7 km) ESE. Retrieved 2019/03/25 15:00 UTC (31 minutes ago):

SLVR 251500Z 17006KT 9999 FEW017 BKN023 28/23 Q1015

TAF (pilot weather forecast)

Closest forecast is Viru Viru International Airport, 33.8 nm (62.7 km) ESE. Retrieved 2019/03/25 12:33 UTC (3 hours ago):

TAF COR SLVR 251050Z 2512/2612 18006KT 9999 BKN017 BKN070 TX28/2520Z TN22/2610Z PROB30 TEMPO 2518/2521 12016KT 8000 SHRA BKN015 FEW030CB PROB40 TEMPO 2604/2608 7000 RA SCT006 BKN010 BKN070